Time;durP1;ratioP1;P1;durP2;ratioP2;P2;SDS_P1;SDS_P2;PMS_P1;PMS_P2;Temp;Humidity;BMP_temperature;BMP_pressure;BME280_temperature;BME280_humidity;BME280_pressure;Samples;Min_cycle;Max_cycle;Signal;HPM_P1;HPM_P2
2022/08/09 00:02:31;;;;;;;2.57;2.37;;;;;16.40;102156.00;;;;10436849;28;20213;-80
2022/08/09 00:07:34;;;;;;;2.43;2.23;;;;;16.40;102152.00;;;;10469660;28;20193;-80
2022/08/09 00:12:46;;;;;;;4.43;2.60;;;;;16.30;102150.00;;;;10438308;28;20282;-80
2022/08/09 00:17:53;;;;;;;3.67;3.07;;;;;16.30;102160.00;;;;10468506;28;20734;-80
2022/08/09 00:23:12;;;;;;;4.17;3.27;;;;;16.20;102161.00;;;;10439202;28;20192;-81
2022/08/09 00:28:34;;;;;;;5.60;3.10;;;;;16.10;102164.00;;;;10418206;28;20202;-80
2022/08/09 00:33:38;;;;;;;4.63;3.37;;;;;16.10;102154.00;;;;10469372;28;20193;-81
2022/08/09 00:38:52;;;;;;;3.97;2.93;;;;;16.00;102152.00;;;;10413331;28;20214;-81
2022/08/09 00:43:55;;;;;;;5.30;3.10;;;;;16.00;102152.00;;;;10455148;28;20193;-80
2022/08/09 00:49:17;;;;;;;6.23;3.50;;;;;15.90;102151.00;;;;10440262;28;20248;-80
2022/08/09 00:54:22;;;;;;;4.13;3.07;;;;;15.90;102154.00;;;;10426184;28;20213;-80
2022/08/09 00:59:42;;;;;;;5.53;4.00;;;;;15.90;102149.00;;;;10423785;28;20229;-81
2022/08/09 01:04:56;;;;;;;4.50;3.83;;;;;15.80;102147.00;;;;10413150;28;20271;-81
2022/08/09 01:10:08;;;;;;;6.27;4.37;;;;;15.70;102146.00;;;;10424204;28;20304;-80
2022/08/09 01:15:20;;;;;;;6.57;4.00;;;;;15.70;102153.00;;;;10434670;28;20197;-80
2022/08/09 01:20:32;;;;;;;6.43;3.97;;;;;15.60;102147.00;;;;10466595;28;20213;-81
2022/08/09 01:25:34;;;;;;;6.37;4.43;;;;;15.60;102152.00;;;;10432509;28;20205;-81
2022/08/09 01:30:43;;;;;;;11.60;4.10;;;;;15.60;102148.00;;;;10449568;28;20189;-81
2022/08/09 01:36:02;;;;;;;7.20;5.23;;;;;15.50;102139.00;;;;10426283;28;20678;-81
2022/08/09 01:41:13;;;;;;;5.73;4.87;;;;;15.50;102148.00;;;;10433187;28;20233;-80
2022/08/09 01:46:27;;;;;;;6.13;5.43;;;;;15.40;102140.00;;;;10434353;28;20192;-81
2022/08/09 01:51:31;;;;;;;8.53;4.77;;;;;15.40;102138.00;;;;10449593;28;20656;-81
2022/08/09 01:56:38;;;;;;;6.87;5.17;;;;;15.30;102141.00;;;;10408521;28;20289;-81
2022/08/09 02:01:42;;;;;;;8.60;5.13;;;;;15.30;102136.00;;;;10430935;28;20253;-81
2022/08/09 02:07:14;;;;;;;7.70;5.90;;;;;15.30;102139.00;;;;10464674;28;20182;-80
2022/08/09 02:12:37;;;;;;;7.30;5.40;;;;;15.20;102139.00;;;;10451219;28;20228;-80
2022/08/09 02:17:42;;;;;;;6.37;5.40;;;;;15.20;102141.00;;;;10464383;28;20710;-80
2022/08/09 02:23:13;;;;;;;9.37;5.73;;;;;15.20;102129.00;;;;10433832;28;20244;-81
2022/08/09 02:28:20;;;;;;;8.83;5.93;;;;;15.10;102132.00;;;;10432029;28;20190;-81
2022/08/09 02:33:29;;;;;;;6.97;5.63;;;;;15.10;102137.00;;;;10410396;28;20198;-80
2022/08/09 02:38:45;;;;;;;8.07;5.97;;;;;15.00;102127.00;;;;10391206;28;20206;-81
2022/08/09 02:43:52;;;;;;;6.33;5.73;;;;;14.90;102132.00;;;;10458390;28;20254;-81
2022/08/09 02:49:02;;;;;;;6.43;5.83;;;;;14.80;102126.00;;;;10461465;28;20190;-80
2022/08/09 02:54:09;;;;;;;6.77;6.13;;;;;14.70;102118.00;;;;10422549;28;20216;-80
2022/08/09 02:59:15;;;;;;;6.17;5.53;;;;;14.70;102121.00;;;;10410481;28;20209;-81
2022/08/09 03:04:28;;;;;;;7.53;6.23;;;;;14.70;102119.00;;;;10420414;28;20293;-80
2022/08/09 03:09:31;;;;;;;6.67;6.07;;;;;14.70;102121.00;;;;10390191;28;20206;-80
2022/08/09 03:14:34;;;;;;;6.83;6.00;;;;;14.60;102121.00;;;;10415036;28;20231;-81
2022/08/09 03:19:39;;;;;;;7.27;6.07;;;;;14.60;102126.00;;;;10446728;28;20220;-81
2022/08/09 03:25:01;;;;;;;7.47;6.30;;;;;14.50;102118.00;;;;10449535;28;20197;-80
2022/08/09 03:30:23;;;;;;;9.17;6.67;;;;;14.50;102125.00;;;;10439980;28;20185;-80
2022/08/09 03:35:35;;;;;;;7.13;6.03;;;;;14.50;102133.00;;;;10454584;28;20201;-80
2022/08/09 03:40:57;;;;;;;11.93;6.60;;;;;14.40;102136.00;;;;10471951;28;20182;-81
2022/08/09 03:46:00;;;;;;;8.43;6.47;;;;;14.40;102141.00;;;;10433116;28;20217;-81
2022/08/09 03:51:23;;;;;;;9.20;6.43;;;;;14.30;102150.00;;;;10399938;28;20541;-80
2022/08/09 03:56:45;;;;;;;8.20;7.27;;;;;14.30;102142.00;;;;10415409;28;20297;-81
2022/08/09 04:01:49;;;;;;;7.83;7.03;;;;;14.30;102150.00;;;;10452674;28;20628;-80
2022/08/09 04:06:51;;;;;;;9.23;6.63;;;;;14.30;102150.00;;;;10422299;28;20197;-80
2022/08/09 04:12:24;;;;;;;9.80;6.90;;;;;14.30;102144.00;;;;10428701;28;20676;-80
2022/08/09 04:17:42;;;;;;;9.73;7.07;;;;;14.20;102143.00;;;;10434115;28;20312;-81
2022/08/09 04:22:45;;;;;;;8.73;7.30;;;;;14.20;102140.00;;;;10436491;28;20220;-81
2022/08/09 04:27:47;;;;;;;9.67;7.37;;;;;14.20;102149.00;;;;10435509;28;20281;-80
2022/08/09 04:32:50;;;;;;;9.37;7.20;;;;;14.20;102140.00;;;;10436335;28;20201;-80
2022/08/09 04:37:54;;;;;;;10.00;8.10;;;;;14.20;102155.00;;;;10451246;28;20254;-80
2022/08/09 04:42:57;;;;;;;11.83;8.60;;;;;14.30;102153.00;;;;10447205;28;20194;-81
2022/08/09 04:47:59;;;;;;;10.67;8.07;;;;;14.30;102158.00;;;;10433708;28;20190;-81
2022/08/09 04:53:06;;;;;;;8.90;7.50;;;;;14.40;102163.00;;;;10435065;28;20247;-81
2022/08/09 04:58:14;;;;;;;9.30;8.30;;;;;14.50;102160.00;;;;10451650;28;20259;-81
2022/08/09 05:03:17;;;;;;;8.83;7.93;;;;;14.60;102164.00;;;;10416115;28;20229;-81
2022/08/09 05:08:39;;;;;;;12.03;9.03;;;;;14.70;102167.00;;;;10455062;28;20194;-81
2022/08/09 05:13:48;;;;;;;12.17;8.83;;;;;14.90;102176.00;;;;10436516;28;20217;-81
2022/08/09 05:18:50;;;;;;;12.80;8.50;;;;;15.10;102184.00;;;;10408939;28;20252;-81
2022/08/09 05:24:00;;;;;;;13.17;8.47;;;;;15.40;102189.00;;;;10394058;28;20286;-81
2022/08/09 05:29:05;;;;;;;9.97;8.50;;;;;15.70;102181.00;;;;10409190;28;20194;-81
2022/08/09 05:34:17;;;;;;;10.70;7.97;;;;;16.00;102170.00;;;;10412496;28;20290;-80
2022/08/09 05:39:21;;;;;;;11.80;8.67;;;;;16.30;102180.00;;;;10409120;28;20214;-81
2022/08/09 05:44:36;;;;;;;11.03;8.63;;;;;16.60;102183.00;;;;10445670;28;20193;-81
2022/08/09 05:49:38;;;;;;;9.30;8.37;;;;;16.90;102179.00;;;;10449027;28;20190;-81
2022/08/09 05:55:01;;;;;;;13.80;8.37;;;;;17.30;102185.00;;;;10410647;28;20208;-81
2022/08/09 06:00:08;;;;;;;11.37;8.10;;;;;17.70;102190.00;;;;10431145;28;20210;-81
2022/08/09 06:05:14;;;;;;;10.57;7.75;;;;;18.30;102186.00;;;;10432645;28;20272;-81
2022/08/09 06:10:17;;;;;;;8.57;6.82;;;;;18.90;102198.00;;;;10449134;28;20186;-81
2022/08/09 06:15:20;;;;;;;7.18;6.47;;;;;19.30;102200.00;;;;10409552;28;20201;-81
2022/08/09 06:20:22;;;;;;;7.60;6.43;;;;;19.70;102206.00;;;;10423725;28;20257;-81
2022/08/09 06:25:25;;;;;;;6.97;5.45;;;;;20.10;102215.00;;;;10391465;28;20301;-80
2022/08/09 06:30:27;;;;;;;5.93;5.18;;;;;20.50;102214.00;;;;10425249;28;20186;-81
2022/08/09 06:35:29;;;;;;;6.38;5.40;;;;;20.80;102217.00;;;;10453538;28;20224;-81
2022/08/09 06:40:51;;;;;;;6.10;5.07;;;;;21.30;102220.00;;;;10428323;28;20260;-81
2022/08/09 06:45:56;;;;;;;7.72;4.82;;;;;21.60;102214.00;;;;10422892;28;20236;-81
2022/08/09 06:51:12;;;;;;;6.00;4.85;;;;;21.80;102229.00;;;;10408623;28;20205;-81
2022/08/09 06:56:17;;;;;;;7.28;4.95;;;;;22.10;102231.00;;;;10406518;28;20204;-81
2022/08/09 07:01:19;;;;;;;4.63;3.83;;;;;22.40;102236.00;;;;10464395;28;20206;-81
2022/08/09 07:06:25;;;;;;;7.80;4.07;;;;;22.80;102234.00;;;;10436044;28;20316;-81
2022/08/09 07:11:30;;;;;;;5.20;4.70;;;;;23.10;102245.00;;;;10413613;28;20541;-81
2022/08/09 07:16:53;;;;;;;6.22;4.10;;;;;23.40;102249.00;;;;10449534;28;20221;-82
2022/08/09 07:21:59;;;;;;;4.95;4.05;;;;;23.70;102245.00;;;;10427042;28;20213;-81
2022/08/09 07:27:03;;;;;;;6.43;4.40;;;;;23.60;102231.00;;;;10425953;28;20558;-82
2022/08/09 07:32:11;;;;;;;4.85;3.95;;;;;23.90;102227.00;;;;10395960;28;20199;-82
2022/08/09 07:37:13;;;;;;;7.05;4.30;;;;;24.10;102240.00;;;;10430557;28;20194;-82
2022/08/09 07:42:17;;;;;;;9.35;4.05;;;;;24.20;102234.00;;;;10424113;28;20244;-82
2022/08/09 07:47:19;;;;;;;5.00;3.85;;;;;24.60;102235.00;;;;10462819;28;20285;-82
2022/08/09 07:52:22;;;;;;;4.82;3.75;;;;;25.00;102245.00;;;;10423721;28;20218;-82
2022/08/09 07:57:24;;;;;;;3.80;3.35;;;;;25.30;102241.00;;;;10426019;28;20203;-82
2022/08/09 08:02:37;;;;;;;7.45;4.00;;;;;25.80;102235.00;;;;10436710;28;20257;-82
2022/08/09 08:07:43;;;;;;;4.00;3.58;;;;;26.00;102237.00;;;;10449604;28;20186;-82
2022/08/09 08:13:05;;;;;;;5.32;3.20;;;;;26.30;102242.00;;;;10434750;28;20189;-82
2022/08/09 08:18:11;;;;;;;6.65;2.75;;;;;26.80;102244.00;;;;10452406;28;20213;-82
2022/08/09 08:23:17;;;;;;;3.55;2.53;;;;;26.90;102253.00;;;;10466409;28;20186;-81
2022/08/09 08:28:20;;;;;;;4.35;2.80;;;;;27.10;102238.00;;;;10466345;28;20205;-82
2022/08/09 08:33:33;;;;;;;4.18;2.70;;;;;27.60;102248.00;;;;10423734;28;20294;-82
2022/08/09 08:38:53;;;;;;;2.85;2.03;;;;;27.80;102250.00;;;;10438199;28;20209;-82
2022/08/09 08:43:57;;;;;;;4.72;2.20;;;;;28.00;102249.00;;;;10410937;28;20206;-81
2022/08/09 08:49:07;;;;;;;5.65;2.40;;;;;28.20;102252.00;;;;10433368;28;20196;-82
2022/08/09 08:54:19;;;;;;;5.28;2.17;;;;;28.60;102258.00;;;;10451778;28;20643;-82
2022/08/09 08:59:31;;;;;;;4.03;2.03;;;;;28.90;102252.00;;;;10486149;28;20198;-82
2022/08/09 09:04:51;;;;;;;4.63;2.15;;;;;29.10;102243.00;;;;10478603;28;20254;-82
2022/08/09 09:09:55;;;;;;;4.78;1.75;;;;;29.30;102257.00;;;;10443819;28;20190;-82
2022/08/09 09:15:05;;;;;;;3.30;1.75;;;;;29.50;102253.00;;;;10427994;28;20190;-82
2022/08/09 09:20:09;;;;;;;3.88;1.60;;;;;29.90;102252.00;;;;10450633;28;20233;-82
2022/08/09 09:25:42;;;;;;;4.38;1.85;;;;;30.20;102250.00;;;;10448827;28;20204;-82
2022/08/09 09:31:04;;;;;;;5.28;1.70;;;;;30.40;102253.00;;;;10453281;28;20227;-82
2022/08/09 09:36:18;;;;;;;3.67;1.45;;;;;30.60;102254.00;;;;10465850;28;20224;-79
2022/08/09 09:41:22;;;;;;;4.05;2.03;;;;;30.60;102253.00;;;;10433724;28;20209;-80
2022/08/09 09:46:37;;;;;;;4.55;1.33;;;;;30.90;102240.00;;;;10450535;28;20193;-81
2022/08/09 09:51:44;;;;;;;6.32;1.80;;;;;31.10;102240.00;;;;10413804;28;20260;-83
2022/08/09 09:56:53;;;;;;;2.92;1.40;;;;;31.40;102249.00;;;;10433413;28;20186;-81
2022/08/09 10:02:17;;;;;;;3.50;1.75;;;;;31.10;102241.00;;;;10435869;28;20308;-83
2022/08/09 10:07:26;;;;;;;2.75;1.40;;;;;31.40;102241.00;;;;10465653;28;20182;-80
2022/08/09 10:12:33;;;;;;;3.65;1.55;;;;;31.30;102238.00;;;;10440406;28;20277;-81
2022/08/09 10:17:35;;;;;;;3.15;1.17;;;;;31.50;102244.00;;;;10442302;28;20655;-81
2022/08/09 10:22:59;;;;;;;3.10;1.60;;;;;31.60;102236.00;;;;10460734;28;20205;-81
2022/08/09 10:28:02;;;;;;;4.57;1.27;;;;;31.60;102230.00;;;;10432113;28;20247;-81
2022/08/09 10:33:04;;;;;;;2.80;1.58;;;;;32.10;102230.00;;;;10440400;28;20194;-81
2022/08/09 10:38:09;;;;;;;3.25;1.48;;;;;32.40;102226.00;;;;10452122;28;20657;-82
2022/08/09 10:43:34;;;;;;;2.72;1.33;;;;;32.60;102223.00;;;;10457225;28;20210;-83
2022/08/09 10:49:15;;;;;;;1.88;1.60;;;;;32.70;102229.00;;;;10406177;28;20202;-82
2022/08/09 10:54:25;;;;;;;2.50;1.17;;;;;33.10;102230.00;;;;10429305;28;20221;-82
2022/08/09 10:59:29;;;;;;;3.50;1.38;;;;;33.00;102220.00;;;;10392489;28;20229;-81
2022/08/09 11:05:16;;;;;;;4.13;1.65;;;;;32.70;102206.00;;;;10433897;28;20748;-82
2022/08/09 11:10:54;;;;;;;7.88;1.80;;;;;32.90;102200.00;;;;10420705;28;20258;-81
2022/08/09 11:16:37;;;;;;;3.33;1.50;;;;;33.50;102194.00;;;;10387345;28;20206;-82
2022/08/09 11:22:09;;;;;;;4.50;1.45;;;;;33.70;102192.00;;;;10409884;28;20205;-82
2022/08/09 11:27:42;;;;;;;4.28;1.42;;;;;33.80;102198.00;;;;10457793;28;20210;-82
2022/08/09 11:33:16;;;;;;;3.78;1.17;;;;;33.70;102195.00;;;;10428667;28;20189;-83
2022/08/09 11:38:30;;;;;;;3.15;1.52;;;;;33.60;102188.00;;;;10451027;28;20224;-82
2022/08/09 11:43:34;;;;;;;3.80;1.35;;;;;33.90;102193.00;;;;10451763;28;20691;-83
2022/08/09 11:48:51;;;;;;;5.20;1.40;;;;;34.00;102191.00;;;;10407249;28;20293;-82
2022/08/09 11:54:17;;;;;;;3.95;1.70;;;;;33.80;102184.00;;;;10460194;28;20240;-82
2022/08/09 11:59:29;;;;;;;2.90;1.08;;;;;33.80;102181.00;;;;10447825;28;20249;-82
2022/08/09 12:04:35;;;;;;;2.60;1.48;;;;;33.70;102170.00;;;;10439697;28;20269;-83
2022/08/09 12:09:42;;;;;;;1.98;1.40;;;;;33.70;102169.00;;;;10408002;28;20197;-82
2022/08/09 12:14:52;;;;;;;2.00;1.30;;;;;34.00;102169.00;;;;10435078;28;20583;-82
2022/08/09 12:20:40;;;;;;;5.75;1.70;;;;;34.10;102168.00;;;;10442405;28;20267;-82
2022/08/09 12:25:47;;;;;;;2.60;1.30;;;;;34.20;102151.00;;;;10414958;28;20190;-83
2022/08/09 12:30:51;;;;;;;1.25;1.08;;;;;34.40;102138.00;;;;10449660;28;20273;-82
2022/08/09 12:36:04;;;;;;;2.30;1.33;;;;;34.40;102143.00;;;;10443995;28;20647;-82
2022/08/09 12:41:31;;;;;;;2.88;1.48;;;;;34.00;102141.00;;;;10419416;28;20568;-81
2022/08/09 12:46:43;;;;;;;5.75;1.60;;;;;33.70;102135.00;;;;10444203;28;20284;-83
2022/08/09 12:51:57;;;;;;;4.25;1.00;;;;;34.30;102115.00;;;;10447102;28;20240;-82
2022/08/09 12:57:02;;;;;;;2.88;1.10;;;;;34.40;102126.00;;;;10465804;28;20209;-81
2022/08/09 13:02:05;;;;;;;4.32;1.35;;;;;34.00;102126.00;;;;10426572;28;20226;-82
2022/08/09 13:07:15;;;;;;;3.67;1.20;;;;;33.90;102109.00;;;;10452027;28;20196;-82
2022/08/09 13:12:21;;;;;;;3.00;1.20;;;;;34.10;102112.00;;;;10446700;28;20200;-82
2022/08/09 13:17:28;;;;;;;2.42;1.30;;;;;33.90;102103.00;;;;10443557;28;20267;-81
2022/08/09 13:22:51;;;;;;;2.65;1.23;;;;;34.60;102093.00;;;;10412931;28;20226;-82
2022/08/09 13:28:15;;;;;;;2.65;1.30;;;;;35.20;102086.00;;;;10421349;28;20263;-82
2022/08/09 13:33:34;;;;;;;2.13;0.90;;;;;35.80;102084.00;;;;10434207;28;20203;-82
2022/08/09 13:38:55;;;;;;;1.98;1.15;;;;;36.40;102084.00;;;;10431452;28;20196;-82
2022/08/09 13:44:05;;;;;;;3.42;1.15;;;;;37.10;102088.00;;;;10448726;28;20632;-82
2022/08/09 13:49:08;;;;;;;3.08;1.13;;;;;37.60;102073.00;;;;10444883;28;20201;-82
2022/08/09 13:54:19;;;;;;;2.30;0.82;;;;;38.00;102072.00;;;;10453251;28;20663;-82
2022/08/09 13:59:26;;;;;;;2.83;1.10;;;;;38.50;102072.00;;;;10429511;28;20228;-81
2022/08/09 14:04:42;;;;;;;2.70;0.80;;;;;38.90;102074.00;;;;10444919;28;20235;-81
2022/08/09 14:10:01;;;;;;;3.65;0.90;;;;;39.40;102071.00;;;;10483279;28;20264;-81
2022/08/09 14:15:05;;;;;;;3.22;1.25;;;;;39.60;102068.00;;;;10439182;28;20194;-81
2022/08/09 14:20:29;;;;;;;3.40;1.00;;;;;38.70;102078.00;;;;10446652;28;20229;-82
2022/08/09 14:25:31;;;;;;;2.35;0.90;;;;;39.40;102068.00;;;;10432638;28;20195;-81
2022/08/09 14:30:44;;;;;;;2.17;0.95;;;;;40.60;102050.00;;;;10455117;28;20190;-82
2022/08/09 14:35:47;;;;;;;2.08;0.93;;;;;40.50;102054.00;;;;10436053;28;20221;-82
2022/08/09 14:40:54;;;;;;;1.17;0.93;;;;;40.60;102052.00;;;;10423009;28;20236;-81
2022/08/09 14:46:03;;;;;;;4.15;1.10;;;;;41.00;102047.00;;;;10448018;28;20679;-83
2022/08/09 14:51:25;;;;;;;0.93;0.73;;;;;41.00;102044.00;;;;10421308;28;20186;-81
2022/08/09 14:56:30;;;;;;;2.88;0.82;;;;;41.30;102043.00;;;;10450616;28;20198;-82
2022/08/09 15:01:32;;;;;;;1.92;0.93;;;;;41.60;102038.00;;;;10428269;28;20221;-82
2022/08/09 15:06:34;;;;;;;2.13;1.00;;;;;41.30;102042.00;;;;10459766;28;20250;-81
2022/08/09 15:11:36;;;;;;;3.53;0.80;;;;;38.70;102035.00;;;;10426497;28;20193;-80
2022/08/09 15:16:38;;;;;;;3.05;0.80;;;;;35.60;102036.00;;;;10446853;28;20209;-81
2022/08/09 15:21:45;;;;;;;2.30;0.80;;;;;34.00;102028.00;;;;10465092;28;20213;-81
2022/08/09 15:27:02;;;;;;;1.17;0.75;;;;;34.60;102037.00;;;;10461255;28;20674;-81
2022/08/09 15:32:05;;;;;;;1.08;0.80;;;;;37.30;102035.00;;;;10443465;28;20194;-80
2022/08/09 15:37:34;;;;;;;2.22;0.90;;;;;32.70;102030.00;;;;10421412;28;20183;-81
2022/08/09 15:42:55;;;;;;;1.83;0.70;;;;;33.20;102032.00;;;;10450910;28;20245;-81
2022/08/09 15:47:57;;;;;;;4.35;0.80;;;;;37.70;102011.00;;;;10444996;28;20228;-82
2022/08/09 15:53:19;;;;;;;4.32;0.98;;;;;37.40;102014.00;;;;10432516;28;20638;-82
2022/08/09 15:58:41;;;;;;;2.25;1.10;;;;;33.20;102021.00;;;;10445053;28;20186;-82
2022/08/09 16:03:43;;;;;;;2.85;1.10;;;;;31.30;102016.00;;;;10444601;28;20213;-83
2022/08/09 16:08:51;;;;;;;4.05;1.05;;;;;30.40;102012.00;;;;10452491;28;20190;-82
2022/08/09 16:13:54;;;;;;;2.60;0.93;;;;;30.00;102016.00;;;;10438084;28;20194;-81
2022/08/09 16:19:09;;;;;;;2.15;0.77;;;;;29.50;102013.00;;;;10449227;28;20681;-82
2022/08/09 16:24:14;;;;;;;4.07;0.98;;;;;29.20;102011.00;;;;10446466;28;20209;-83
2022/08/09 16:29:34;;;;;;;1.80;0.90;;;;;28.90;102011.00;;;;10431486;28;20275;-82
2022/08/09 16:34:51;;;;;;;1.83;0.80;;;;;28.70;102005.00;;;;10424302;28;20281;-82
2022/08/09 16:39:59;;;;;;;1.67;1.00;;;;;28.50;102003.00;;;;10427541;28;20210;-82
2022/08/09 16:45:08;;;;;;;1.65;0.77;;;;;28.40;101996.00;;;;10468558;28;20193;-82
2022/08/09 16:50:09;;;;;;;2.00;1.00;;;;;28.20;101996.00;;;;10426361;28;20194;-82
2022/08/09 16:55:32;;;;;;;3.70;1.08;;;;;28.00;102001.00;;;;10445684;28;20189;-81
2022/08/09 17:00:53;;;;;;;1.73;0.90;;;;;27.80;102001.00;;;;10443248;28;20264;-82
2022/08/09 17:05:56;;;;;;;2.00;1.20;;;;;27.70;102002.00;;;;10465609;28;20217;-81
2022/08/09 17:11:18;;;;;;;6.60;1.00;;;;;27.40;102001.00;;;;10453207;28;20667;-82
2022/08/09 17:16:33;;;;;;;1.23;0.90;;;;;27.30;102000.00;;;;10439743;28;20656;-82
2022/08/09 17:21:39;;;;;;;1.15;0.80;;;;;27.20;101997.00;;;;10434264;28;20938;-82
2022/08/09 17:26:41;;;;;;;8.90;1.45;;;;;27.10;102004.00;;;;10424857;28;20288;-81
2022/08/09 17:31:48;;;;;;;4.35;1.02;;;;;27.00;101998.00;;;;10437554;28;20248;-81
2022/08/09 17:36:51;;;;;;;2.20;1.08;;;;;26.90;102008.00;;;;10409222;28;20232;-82
2022/08/09 17:41:54;;;;;;;4.95;0.80;;;;;26.80;102010.00;;;;10458988;28;20202;-82
2022/08/09 17:47:02;;;;;;;3.83;1.00;;;;;26.80;102011.00;;;;10465597;28;20239;-82
2022/08/09 17:52:05;;;;;;;1.77;1.10;;;;;26.70;102007.00;;;;10437490;28;20210;-82
2022/08/09 17:57:21;;;;;;;4.78;1.20;;;;;26.60;102021.00;;;;10425837;28;20201;-82
2022/08/09 18:02:44;;;;;;;3.47;0.95;;;;;26.50;102014.00;;;;10442080;28;20301;-81
2022/08/09 18:07:59;;;;;;;2.25;1.17;;;;;26.30;102012.00;;;;10448659;28;20747;-81
2022/08/09 18:13:05;;;;;;;1.35;0.98;;;;;26.20;102019.00;;;;10416914;28;20584;-82
2022/08/09 18:18:27;;;;;;;3.13;1.05;;;;;26.10;102017.00;;;;10437940;28;20204;-82
2022/08/09 18:23:33;;;;;;;1.15;1.00;;;;;26.00;102018.00;;;;10423206;28;20214;-82
2022/08/09 18:28:55;;;;;;;2.63;1.02;;;;;25.80;102020.00;;;;10438777;28;20206;-82
2022/08/09 18:34:17;;;;;;;1.75;1.10;;;;;25.70;102024.00;;;;10442262;28;20193;-82
2022/08/09 18:39:24;;;;;;;5.88;1.52;;;;;25.50;102033.00;;;;10448422;28;20665;-82
2022/08/09 18:44:33;;;;;;;3.20;1.08;;;;;25.30;102043.00;;;;10422173;28;20562;-81
2022/08/09 18:49:37;;;;;;;2.53;1.08;;;;;25.20;102047.00;;;;10391967;28;20194;-81
2022/08/09 18:54:44;;;;;;;2.72;1.02;;;;;25.00;102038.00;;;;10441128;28;20279;-80
2022/08/09 18:59:55;;;;;;;2.70;0.98;;;;;24.80;102042.00;;;;10447822;28;20196;-82
2022/08/09 19:05:06;;;;;;;3.20;1.10;;;;;24.60;102050.00;;;;10447057;28;20684;-82
2022/08/09 19:10:28;;;;;;;3.00;1.10;;;;;24.30;102047.00;;;;10466993;28;20185;-82
2022/08/09 19:15:39;;;;;;;5.85;1.38;;;;;24.10;102057.00;;;;10430596;28;20204;-81
2022/08/09 19:20:41;;;;;;;5.07;1.23;;;;;23.90;102063.00;;;;10446317;28;20217;-81
2022/08/09 19:25:46;;;;;;;3.67;1.17;;;;;23.60;102069.00;;;;10462354;28;20189;-81
2022/08/09 19:31:06;;;;;;;1.63;0.93;;;;;23.40;102062.00;;;;10432169;28;20192;-81
2022/08/09 19:36:09;;;;;;;3.38;0.90;;;;;23.10;102070.00;;;;10429877;28;20190;-81
2022/08/09 19:41:15;;;;;;;3.90;1.20;;;;;22.90;102072.00;;;;10462463;28;20221;-81
2022/08/09 19:46:36;;;;;;;3.05;1.42;;;;;22.70;102075.00;;;;10445463;28;20280;-81
2022/08/09 19:51:51;;;;;;;1.75;1.10;;;;;22.60;102075.00;;;;10435391;28;20278;-81
2022/08/09 19:56:57;;;;;;;1.73;1.35;;;;;22.50;102071.00;;;;10410293;28;20204;-81
2022/08/09 20:02:01;;;;;;;6.18;1.25;;;;;22.30;102078.00;;;;10428430;28;20225;-82
2022/08/09 20:07:19;;;;;;;5.78;1.70;;;;;22.20;102078.00;;;;10430812;28;20576;-82
2022/08/09 20:12:23;;;;;;;5.03;1.00;;;;;22.10;102071.00;;;;10415924;28;20324;-82
2022/08/09 20:17:32;;;;;;;5.18;1.00;;;;;22.00;102064.00;;;;10434908;28;20209;-82
2022/08/09 20:22:49;;;;;;;1.05;1.00;;;;;21.90;102064.00;;;;10455862;28;20213;-82
2022/08/09 20:27:57;;;;;;;1.95;1.27;;;;;21.90;102067.00;;;;10444578;28;20205;-82
2022/08/09 20:33:01;;;;;;;1.58;1.00;;;;;21.80;102065.00;;;;10437602;28;20237;-82
2022/08/09 20:38:07;;;;;;;3.70;1.10;;;;;21.80;102058.00;;;;10407192;28;20835;-82
2022/08/09 20:43:21;;;;;;;3.72;1.27;;;;;21.70;102065.00;;;;10457631;28;20202;-82
2022/08/09 20:48:27;;;;;;;3.75;1.05;;;;;21.60;102049.00;;;;10451814;28;20201;-82
2022/08/09 20:53:32;;;;;;;4.03;1.15;;;;;21.50;102057.00;;;;10442568;28;20247;-83
2022/08/09 20:58:39;;;;;;;1.20;1.10;;;;;21.40;102060.00;;;;10411187;28;20213;-83
2022/08/09 21:03:45;;;;;;;1.65;0.90;;;;;21.30;102064.00;;;;10416708;28;20226;-82
2022/08/09 21:09:07;;;;;;;1.35;1.05;;;;;21.10;102053.00;;;;10438858;28;20195;-82
2022/08/09 21:14:14;;;;;;;1.25;1.10;;;;;21.00;102063.00;;;;10410729;28;20539;-82
2022/08/09 21:19:18;;;;;;;1.95;1.05;;;;;20.90;102062.00;;;;10393220;28;20288;-82
2022/08/09 21:30:01;;;;;;;2.80;1.95;;;;;20.60;102071.00;;;;10429827;28;20281;-82
2022/08/09 21:35:04;;;;;;;3.15;1.70;;;;;20.50;102073.00;;;;10444338;28;20649;-82
2022/08/09 21:40:06;;;;;;;4.38;1.45;;;;;20.40;102072.00;;;;10412373;28;20190;-82
2022/08/09 21:45:11;;;;;;;6.25;1.50;;;;;20.30;102071.00;;;;10433727;28;20619;-82
2022/08/09 21:50:19;;;;;;;2.75;1.50;;;;;20.20;102080.00;;;;10433408;28;20194;-82
2022/08/09 21:55:39;;;;;;;4.25;1.20;;;;;20.00;102072.00;;;;10435255;28;20208;-82
2022/08/09 22:00:47;;;;;;;2.85;1.20;;;;;19.90;102081.00;;;;10429420;28;20194;-82
2022/08/09 22:05:54;;;;;;;1.75;1.10;;;;;19.80;102080.00;;;;10482858;28;20217;-82
2022/08/09 22:10:59;;;;;;;2.60;1.33;;;;;19.80;102086.00;;;;10481918;28;20652;-82
2022/08/09 22:16:21;;;;;;;5.63;1.25;;;;;19.70;102082.00;;;;10436838;28;20664;-82
2022/08/09 22:21:26;;;;;;;4.18;1.52;;;;;19.60;102088.00;;;;10433955;28;20214;-82
2022/08/09 22:26:48;;;;;;;6.53;1.42;;;;;19.50;102094.00;;;;10411213;28;20186;-81
2022/08/09 22:31:53;;;;;;;2.10;1.30;;;;;19.50;102092.00;;;;10440933;28;20247;-82
2022/08/09 22:36:58;;;;;;;1.85;1.38;;;;;19.40;102090.00;;;;10480897;28;20573;-82
2022/08/09 22:42:01;;;;;;;3.92;1.40;;;;;19.40;102089.00;;;;10428423;28;20210;-82
2022/08/09 22:47:03;;;;;;;2.70;1.52;;;;;19.40;102091.00;;;;10455301;28;20193;-82
2022/08/09 22:52:25;;;;;;;4.18;1.63;;;;;19.30;102086.00;;;;10424171;28;20236;-82
2022/08/09 22:57:28;;;;;;;1.95;1.38;;;;;19.30;102080.00;;;;10406238;28;20273;-82
2022/08/09 23:02:36;;;;;;;2.97;1.60;;;;;19.20;102093.00;;;;10451693;28;20220;-81
2022/08/09 23:13:26;;;;;;;5.10;1.42;;;;;19.10;102081.00;;;;10421852;28;20805;-82
2022/08/09 23:18:28;;;;;;;3.00;1.52;;;;;19.00;102079.00;;;;10421162;28;20248;-83
2022/08/09 23:23:30;;;;;;;3.67;1.77;;;;;19.00;102086.00;;;;10447177;28;20690;-82
2022/08/09 23:28:34;;;;;;;2.22;1.60;;;;;18.90;102070.00;;;;10424229;28;20206;-82
2022/08/09 23:33:36;;;;;;;4.00;1.73;;;;;18.80;102071.00;;;;10411060;28;20661;-83
2022/08/09 23:38:39;;;;;;;3.05;1.70;;;;;18.70;102068.00;;;;10462636;28;20610;-82
2022/08/09 23:43:50;;;;;;;3.35;1.77;;;;;18.60;102063.00;;;;10432782;28;20255;-82
2022/08/09 23:48:57;;;;;;;2.60;2.10;;;;;18.50;102068.00;;;;10454283;28;20740;-82
2022/08/09 23:53:59;;;;;;;5.63;2.08;;;;;18.50;102069.00;;;;10437494;28;20194;-82
2022/08/09 23:59:03;;;;;;;3.53;2.03;;;;;18.40;102067.00;;;;10471332;28;20224;-82
